Inland, South Dakota
Current Conditions -  °F | °C
As of 7:15 AM on Sunday 25 Jan 2015 (Local Time) from KSPF Reporting Station
Overcast Overcast  
Wind Chill: 28°   Ceiling: 11000
Heat Index: 36°   Visibility: 10mi
Dew Point: 16°   Wind: 10mph
Humidity: 44%   Direction: 270°W
Pressure: 30.06"   Gusts: NA
Location:  45.0528°N, 102.806°W
Report Text: KSPF 251415Z AUTO 27009KT 10SM OVC110 02/M09 A3006 RMK AO2
Loading
Personal Weather Stations






























Interactive Weather Map New forecast layout! Learn more

10-Day Weather Forecast

Advertisements
Track Severe Weather on mobile